West Porterville
DateTemperatureDew Point
09/04 - 05:00 PM81.5°61.2°
09/04 - 04:45 PM81.9°61.3°
09/04 - 04:30 PM82.4°61.5°
09/04 - 04:15 PM82.7°62.4°
09/04 - 04:00 PM82.7°61.4°
09/04 - 03:45 PM83.2°62.1°
09/04 - 03:30 PM83.5°62.0°
09/04 - 03:15 PM83.5°62.9°
09/04 - 03:00 PM83.5°62.4°
09/04 - 02:45 PM83.5°63.0°
09/04 - 02:30 PM83.2°62.7°
09/04 - 02:15 PM83.0°62.5°
09/04 - 02:00 PM82.5°62.4°
09/04 - 01:45 PM82.4°62.9°
09/04 - 01:30 PM82.2°62.7°
09/04 - 01:15 PM81.7°62.3°
09/04 - 01:00 PM81.5°63.0°
09/04 - 12:45 PM80.2°62.9°
09/04 - 12:30 PM80.0°62.5°
09/04 - 12:15 PM79.5°62.9°
09/04 - 12:00 PM79.1°63.7°
09/04 - 11:45 AM78.2°63.6°
09/04 - 11:30 AM76.7°62.8°
09/04 - 11:15 AM75.9°62.5°
09/04 - 11:00 AM75.4°62.8°
09/04 - 10:45 AM74.4°62.3°
09/04 - 10:30 AM73.5°62.3°
09/04 - 10:15 AM72.7°61.9°
09/04 - 10:00 AM72.0°62.1°
09/04 - 09:45 AM71.4°62.0°
09/04 - 09:30 AM70.3°61.5°
09/04 - 09:15 AM68.9°61.1°
09/04 - 09:00 AM67.5°60.4°
09/04 - 08:45 AM66.1°59.8°
09/04 - 08:30 AM64.8°59.4°
09/04 - 08:15 AM63.4°59.0°
09/04 - 08:00 AM61.6°57.8°
09/04 - 07:45 AM60.4°56.8°
09/04 - 07:30 AM58.1°56.4°
09/04 - 07:15 AM56.8°55.7°
09/04 - 07:00 AM56.1°54.8°
09/04 - 06:45 AM55.5°53.9°
09/04 - 06:30 AM55.2°53.5°
09/04 - 06:15 AM55.2°53.5°
09/04 - 06:00 AM55.3°53.7°
09/04 - 05:45 AM55.4°53.6°
09/04 - 05:30 AM55.4°53.7°
09/04 - 05:15 AM55.6°53.5°
09/04 - 05:00 AM55.8°53.5°
09/04 - 04:45 AM56.1°53.9°
09/04 - 04:30 AM56.2°54.0°
09/04 - 04:15 AM56.5°54.2°
09/04 - 04:00 AM56.8°54.6°
09/04 - 03:45 AM57.1°54.7°
09/04 - 03:30 AM57.3°54.7°
09/04 - 03:15 AM57.7°54.9°
09/04 - 03:00 AM58.0°55.2°
09/04 - 02:45 AM58.2°55.5°
09/04 - 02:30 AM58.6°55.9°
09/04 - 02:15 AM58.8°56.1°
09/04 - 02:00 AM59.1°56.4°
09/04 - 01:45 AM59.3°56.8°
09/04 - 01:30 AM59.5°57.0°
09/04 - 01:15 AM59.9°57.1°
09/04 - 01:00 AM60.5°57.1°
09/04 - 12:45 AM61.1°57.5°
09/04 - 12:30 AM61.6°57.8°
09/04 - 12:15 AM62.0°57.7°
09/04 - 12:00 AM62.3°57.6°
09/03 - 11:45 PM62.4°57.6°
09/03 - 11:30 PM62.6°58.1°
09/03 - 11:15 PM62.4°58.3°
09/03 - 11:00 PM63.1°58.8°
09/03 - 10:45 PM63.4°59.1°
09/03 - 10:30 PM63.7°59.3°
09/03 - 10:15 PM64.1°59.5°
09/03 - 10:00 PM64.5°59.3°
09/03 - 09:45 PM65.0°59.2°
09/03 - 09:30 PM65.4°59.0°
09/03 - 09:15 PM65.8°59.4°
09/03 - 09:00 PM66.2°59.9°
09/03 - 08:45 PM67.0°60.6°
09/03 - 08:30 PM67.7°62.0°
09/03 - 08:15 PM68.4°62.1°
09/03 - 08:00 PM69.0°61.6°
09/03 - 07:45 PM69.8°61.4°
09/03 - 07:30 PM70.9°61.2°
09/03 - 07:15 PM72.1°59.9°
09/03 - 07:00 PM73.8°60.1°
09/03 - 06:45 PM75.3°61.0°
09/03 - 06:30 PM76.7°60.9°
09/03 - 06:15 PM77.9°60.6°
09/03 - 06:00 PM78.8°60.1°
09/03 - 05:45 PM79.5°59.7°
09/03 - 05:30 PM80.5°59.5°
09/03 - 05:15 PM81.0°59.2°
09/03 - 05:00 PM81.4°58.7°
09/03 - 04:45 PM81.9°57.6°
09/03 - 04:30 PM82.2°57.8°
09/03 - 04:15 PM82.7°57.1°
09/03 - 04:00 PM82.9°58.6°
09/03 - 03:45 PM83.2°59.1°
09/03 - 03:30 PM83.4°57.9°
09/03 - 03:15 PM83.5°58.6°
09/03 - 03:00 PM83.2°58.2°
09/03 - 02:45 PM83.3°58.9°
09/03 - 02:30 PM83.0°58.9°
09/03 - 02:15 PM82.9°58.2°
09/03 - 02:00 PM82.5°59.1°
09/03 - 01:45 PM82.2°58.2°
09/03 - 01:30 PM82.0°59.2°
09/03 - 01:15 PM81.4°59.4°
09/03 - 01:00 PM81.2°60.0°
09/03 - 12:45 PM80.6°59.1°
09/03 - 12:30 PM79.4°59.5°
09/03 - 12:15 PM79.2°60.4°
09/03 - 12:00 PM78.3°59.8°
09/03 - 11:45 AM77.6°60.3°
09/03 - 11:30 AM76.4°60.0°
09/03 - 11:15 AM75.5°60.3°
09/03 - 11:00 AM74.5°59.4°
09/03 - 10:45 AM73.8°59.5°
09/03 - 10:30 AM73.0°59.5°
09/03 - 10:15 AM72.0°59.2°
09/03 - 10:00 AM71.0°58.7°
09/03 - 09:45 AM70.0°59.0°
09/03 - 09:30 AM68.7°58.8°
09/03 - 09:15 AM67.3°58.5°
09/03 - 09:00 AM66.2°58.0°
09/03 - 08:45 AM64.8°58.1°
09/03 - 08:30 AM63.1°58.0°
09/03 - 08:15 AM61.2°57.7°
09/03 - 08:00 AM59.5°57.9°
09/03 - 07:45 AM58.4°57.8°
09/03 - 07:30 AM57.3°56.8°
09/03 - 07:15 AM56.1°55.6°
09/03 - 07:00 AM55.2°54.6°
09/03 - 06:45 AM54.0°53.2°
09/03 - 06:30 AM52.9°51.5°
09/03 - 06:15 AM52.8°51.1°
09/03 - 06:00 AM52.5°50.7°
09/03 - 05:45 AM52.8°50.8°
09/03 - 05:30 AM53.1°51.0°
09/03 - 05:15 AM53.3°51.4°
09/03 - 05:00 AM53.6°51.7°
09/03 - 04:45 AM53.7°51.8°
09/03 - 04:30 AM53.8°51.7°
09/03 - 04:15 AM54.0°52.0°
09/03 - 04:00 AM54.4°52.4°
09/03 - 03:45 AM54.7°52.9°
09/03 - 03:30 AM55.0°53.2°
09/03 - 03:15 AM55.0°53.2°
09/03 - 03:00 AM55.1°53.2°
09/03 - 02:45 AM55.2°53.1°
09/03 - 02:30 AM55.7°53.5°
09/03 - 02:15 AM56.0°53.7°
09/03 - 02:00 AM56.3°54.0°
09/03 - 01:45 AM56.5°54.1°
09/03 - 01:30 AM56.8°54.4°
09/03 - 01:15 AM57.1°54.6°
09/03 - 01:00 AM57.5°55.0°
09/03 - 12:45 AM57.5°55.1°
09/03 - 12:30 AM57.7°55.1°
09/03 - 12:15 AM57.9°55.4°
09/03 - 12:00 AM58.5°55.7°
09/02 - 11:45 PM59.0°55.8°
09/02 - 11:30 PM59.5°56.1°
09/02 - 11:15 PM59.9°56.4°
09/02 - 11:00 PM60.1°56.5°
09/02 - 10:45 PM60.3°56.4°
09/02 - 10:30 PM60.6°56.4°
09/02 - 10:15 PM61.1°56.8°
09/02 - 10:00 PM61.6°57.2°
09/02 - 09:45 PM62.1°57.4°
09/02 - 09:30 PM62.7°57.4°
09/02 - 09:15 PM63.3°58.0°
09/02 - 09:00 PM63.8°57.8°
09/02 - 08:45 PM64.3°57.0°
09/02 - 08:30 PM65.0°57.1°
09/02 - 08:15 PM65.7°57.3°
09/02 - 08:00 PM66.8°57.3°
09/02 - 07:45 PM67.9°57.6°
09/02 - 07:30 PM69.0°58.2°
09/02 - 07:15 PM70.5°58.6°
09/02 - 07:00 PM72.1°59.3°
09/02 - 06:45 PM73.6°59.8°
09/02 - 06:30 PM75.0°59.5°
09/02 - 06:15 PM76.1°59.7°
09/02 - 06:00 PM77.1°57.9°